Monterey, IN (46960)

17:58 EST le 20 décembre 2014 (GMT -0500)
400 west | Change Station
CLOSE
Current Station
Stations météorologiques personnelles
Location: Rochester, IN
Altitude: 745 ft
Stations météo à proximité

Alt. 745 ft 41.09 °N, 86.32 °W | Updated 6 seconds ago

Nuageux
Nuageux
31.6 ° F
Paraît 32 ° F
N
0.0
Vent Variable Vent de ESE
Gusts 1.0 mph

Aujourd'hui
Haut(e) -- | Bas -- ° F
--% Risque de précip.
Hier
Haut(e) -- | Bas -- ° F
Precip. -- pouce
8:07 AM 5:20 PM
Lune descendante, 2% visible
Pression 30.26 pouce
Visibilité 10.0 Miles terrestres
Nuages Couvert 7000 ft
Refroidissement éolien 32 ° F
Point de rosée 29 ° F
Humidité 89%
Précipitations 0.00 pouce
Profondeur de la couche neigeuse Non disponible.
UV 0.0 sur 12
Pollen .10 sur 12
Qualité de l'air Non disponible.
Flu Activity Non disponible.
METAR KOXI 202235Z AUTO 19003KT 10SM OVC070 00/M05 A3026 RMK AO1 T00001047

More Conditions Fewer Conditions

Pression 30.26 pouce
Visibilité 10.0 Miles terrestres
Nuages Couvert 7000 ft
Refroidissement éolien 32 ° F
Point de rosée 29 ° F
Humidité 89%
Précipitations 0.00 pouce
Profondeur de la couche neigeuse Non disponible.
UV 0.0 sur 12
Pollen .10 sur 12
Qualité de l'air Non disponible.
Flu Activity Non disponible.
METAR KOXI 202235Z AUTO 19003KT 10SM OVC070 00/M05 A3026 RMK AO1 T00001047

More Conditions Fewer Conditions

10-Day Weather Forecast

Almanac

Astronomie

Dec. 20, 2014 Lever Coucher
Temps réel
Crépuscule civil
Crépuscule nautique
Crépuscule astronomique
Lune
Durée de lumière visible
Longueur du jour
Tomorrow will be .
, % of the Moon is Illuminated

Extrêmes aujourd'hui

State Highs State Lows

Community

WunderPhotos

Upload Photos

1,779,293 Photos téléchargées !

WunderBlogs® & News

Nearby

Qualité de l'air

  Qualité de l'air Indice de la qualité de l'air Polluant
Not available.

Épaisseur de neige

Station Depth Altitude

Activité sismique

Ville Distance Mag. Time & Date
Minimum magnitude displayed is 2.5.

Températures des eaux côtières

Lieu Température

Stations météo à proximité